Time;durP1;ratioP1;P1;durP2;ratioP2;P2;SDS_P1;SDS_P2;PMS_P1;PMS_P2;Temp;Humidity;BMP_temperature;BMP_pressure;BME280_temperature;BME280_humidity;BME280_pressure;Samples;Min_cycle;Max_cycle;Signal;HPM_P1;HPM_P2
2021/01/29 00:00:45;;;;;;;5.05;1.88;;;;;;;-1.85;84.38;99788.09;4994345;28;20057;-81
2021/01/29 00:03:16;;;;;;;8.25;2.50;;;;;;;-1.73;83.48;99790.41;4997637;28;20160;-79
2021/01/29 00:05:55;;;;;;;4.32;1.73;;;;;;;-1.83;84.22;99786.34;5029888;28;20089;-79
2021/01/29 00:08:24;;;;;;;7.53;2.38;;;;;;;-1.73;83.52;99799.88;5004067;28;20131;-78
2021/01/29 00:10:52;;;;;;;7.30;2.35;;;;;;;-1.68;83.90;99801.47;5030020;28;20033;-79
2021/01/29 00:13:21;;;;;;;8.05;2.95;;;;;;;-1.69;84.07;99802.38;5011441;28;20045;-80
2021/01/29 00:15:49;;;;;;;9.38;2.38;;;;;;;-1.74;84.32;99808.53;4995356;28;20046;-79
2021/01/29 00:18:16;;;;;;;12.95;2.58;;;;;;;-1.70;84.14;99810.16;5006620;28;20061;-78
2021/01/29 00:20:44;;;;;;;4.40;1.98;;;;;;;-1.69;84.31;99804.94;5017965;28;20038;-78
2021/01/29 00:23:12;;;;;;;4.82;1.98;;;;;;;-1.68;84.12;99805.78;5008685;28;20029;-80
2021/01/29 00:25:44;;;;;;;5.93;2.30;;;;;;;-1.64;84.33;99803.09;5013860;28;20046;-80
2021/01/29 00:28:11;;;;;;;12.98;2.28;;;;;;;-1.81;83.93;99800.03;5012865;28;20068;-80
2021/01/29 00:30:39;;;;;;;4.93;2.28;;;;;;;-1.63;84.14;99803.97;5005065;28;20156;-79
2021/01/29 00:33:07;;;;;;;8.45;2.17;;;;;;;-1.56;83.56;99800.38;5015768;28;20133;-80
2021/01/29 00:35:35;;;;;;;5.50;1.73;;;;;;;-1.35;83.59;99792.13;5018883;28;20153;-77
2021/01/29 00:38:04;;;;;;;3.50;1.60;;;;;;;-1.14;82.52;99787.31;5008453;28;20056;-79
2021/01/29 00:40:33;;;;;;;4.07;1.77;;;;;;;-1.19;81.53;99795.19;5011699;28;20041;-80
2021/01/29 00:43:00;;;;;;;7.15;2.00;;;;;;;-1.26;81.81;99793.66;4984080;28;20068;-79
2021/01/29 00:45:29;;;;;;;6.50;2.00;;;;;;;-1.42;82.63;99792.31;4997366;28;20045;-79
2021/01/29 00:47:56;;;;;;;13.18;2.22;;;;;;;-1.36;82.98;99787.84;5022364;28;20062;-79
2021/01/29 00:50:24;;;;;;;13.45;2.35;;;;;;;-1.23;82.51;99777.22;5020811;28;20072;-78
2021/01/29 00:52:52;;;;;;;6.15;2.00;;;;;;;-1.25;82.45;99771.25;5015138;28;20045;-80
2021/01/29 00:55:21;;;;;;;10.57;2.08;;;;;;;-1.14;82.21;99779.56;5018311;28;20062;-79
2021/01/29 00:57:48;;;;;;;5.45;2.05;;;;;;;-1.14;81.97;99774.41;4993782;28;20038;-79
2021/01/29 01:00:17;;;;;;;6.57;1.90;;;;;;;-1.11;82.41;99780.34;5015012;28;20398;-80
2021/01/29 01:02:44;;;;;;;3.85;1.45;;;;;;;-1.17;81.84;99783.09;4988913;28;20045;-80
2021/01/29 01:05:13;;;;;;;12.65;2.15;;;;;;;-1.34;82.26;99785.22;4994347;28;20138;-79
2021/01/29 01:07:40;;;;;;;6.82;1.90;;;;;;;-1.26;81.89;99783.31;5020402;28;20061;-81
2021/01/29 01:10:08;;;;;;;12.63;2.00;;;;;;;-1.40;82.35;99790.53;5005135;28;20149;-78
2021/01/29 01:12:35;;;;;;;5.28;1.90;;;;;;;-1.37;81.93;99786.13;5014908;28;20148;-80
2021/01/29 01:15:23;;;;;;;7.22;1.83;;;;;;;-1.28;81.92;99780.75;5007437;28;20080;-81
2021/01/29 01:17:51;;;;;;;6.57;1.92;;;;;;;-1.13;81.76;99774.34;5003761;28;20898;-80
2021/01/29 01:20:21;;;;;;;6.68;2.08;;;;;;;-1.17;81.60;99771.88;4991335;28;20128;-81
2021/01/29 01:22:49;;;;;;;4.72;1.98;;;;;;;-1.10;81.54;99771.72;5014816;28;20117;-79
2021/01/29 01:25:16;;;;;;;5.57;1.70;;;;;;;-1.24;81.49;99771.22;5015466;28;20049;-80
2021/01/29 01:27:43;;;;;;;3.70;1.58;;;;;;;-1.16;81.44;99769.28;5030869;28;20057;-79
2021/01/29 01:30:15;;;;;;;3.80;1.60;;;;;;;-1.06;81.36;99768.16;4992614;28;20106;-79
2021/01/29 01:32:44;;;;;;;4.13;2.10;;;;;;;-1.00;81.27;99771.47;5026477;28;20089;-80
2021/01/29 01:35:16;;;;;;;4.63;1.30;;;;;;;-1.13;81.05;99776.94;5051218;28;20044;-78
2021/01/29 01:37:49;;;;;;;5.63;1.58;;;;;;;-1.28;81.10;99769.59;5004444;28;20053;-78
2021/01/29 01:40:19;;;;;;;3.97;2.08;;;;;;;-1.29;81.64;99778.22;4995109;28;20459;-79
2021/01/29 01:42:46;;;;;;;4.35;2.03;;;;;;;-1.13;81.07;99779.53;4974281;28;20038;-80
2021/01/29 01:45:28;;;;;;;7.25;2.28;;;;;;;-1.25;81.21;99777.25;5008817;28;20124;-79
2021/01/29 01:48:02;;;;;;;1.75;1.38;;;;;;;-1.32;82.12;99778.28;5003694;28;20759;-79
2021/01/29 01:50:38;;;;;;;6.13;1.67;;;;;;;-1.33;81.90;99769.69;4984455;28;20049;-80
2021/01/29 01:53:37;;;;;;;3.33;1.48;;;;;;;-1.61;82.21;99774.66;4991745;28;20100;-81
2021/01/29 01:56:13;;;;;;;6.28;1.60;;;;;;;-1.45;81.90;99766.56;5005937;28;20056;-81
2021/01/29 01:58:45;;;;;;;5.20;1.50;;;;;;;-1.49;81.95;99770.09;5002960;28;20046;-80
2021/01/29 02:01:12;;;;;;;3.80;1.65;;;;;;;-1.44;82.23;99766.53;4998062;28;20061;-81
2021/01/29 02:03:39;;;;;;;8.07;1.77;;;;;;;-1.51;82.33;99771.88;5017624;28;20050;-81
2021/01/29 02:06:11;;;;;;;4.82;1.80;;;;;;;-1.62;82.61;99769.50;5007181;28;20061;-80
2021/01/29 02:08:39;;;;;;;3.03;1.55;;;;;;;-1.78;83.23;99779.34;4993655;28;20049;-80
2021/01/29 02:11:06;;;;;;;5.57;1.50;;;;;;;-1.78;83.12;99771.63;5010641;28;20073;-79
2021/01/29 02:13:33;;;;;;;7.85;1.60;;;;;;;-1.79;83.58;99768.19;4995758;28;20068;-80
2021/01/29 02:16:07;;;;;;;9.98;1.73;;;;;;;-1.69;83.14;99762.81;5008202;28;20804;-80
2021/01/29 02:19:06;;;;;;;4.78;1.63;;;;;;;-1.74;83.09;99759.50;5007470;28;20049;-80
2021/01/29 02:21:49;;;;;;;5.63;1.40;;;;;;;-1.65;83.50;99754.13;5022571;28;20081;-79
2021/01/29 02:24:54;;;;;;;6.13;1.77;;;;;;;-1.69;83.33;99752.50;5013870;28;20108;-81
2021/01/29 02:27:43;;;;;;;7.95;1.55;;;;;;;-1.73;83.29;99745.69;5010156;28;20049;-78
2021/01/29 02:30:24;;;;;;;4.82;1.52;;;;;;;-1.72;83.49;99750.81;5012630;28;20117;-78
2021/01/29 02:33:06;;;;;;;6.72;1.80;;;;;;;-1.66;83.19;99742.97;4999643;28;20298;-80
2021/01/29 02:36:11;;;;;;;7.72;1.48;;;;;;;-1.62;83.25;99739.44;5006552;28;20066;-79
2021/01/29 02:38:52;;;;;;;10.02;1.80;;;;;;;-1.45;82.72;99740.75;5027930;28;20375;-78
2021/01/29 02:41:45;;;;;;;4.82;1.63;;;;;;;-1.53;82.71;99728.03;5028562;28;20550;-79
2021/01/29 02:44:36;;;;;;;4.85;1.98;;;;;;;-1.49;83.02;99731.38;5000930;28;20049;-79
2021/01/29 02:47:13;;;;;;;7.68;2.08;;;;;;;-1.45;82.74;99727.81;5041192;28;20128;-78
2021/01/29 02:50:01;;;;;;;5.22;1.60;;;;;;;-1.52;83.15;99724.56;5015372;28;20641;-78
2021/01/29 02:52:43;;;;;;;6.57;1.88;;;;;;;-1.47;83.10;99721.88;5009086;28;20165;-78
2021/01/29 02:55:31;;;;;;;1.95;1.52;;;;;;;-1.30;81.59;99720.56;5024044;28;20065;-80
2021/01/29 02:58:07;;;;;;;11.63;2.10;;;;;;;-1.50;82.13;99724.50;5004394;28;20128;-80
2021/01/29 03:00:41;;;;;;;8.52;1.83;;;;;;;-1.59;82.67;99723.00;5019194;28;20041;-78
2021/01/29 03:03:17;;;;;;;5.95;1.65;;;;;;;-1.64;83.09;99730.84;5004522;28;20081;-79
2021/01/29 03:05:56;;;;;;;4.72;1.77;;;;;;;-1.71;83.78;99734.47;5015111;28;20057;-78
2021/01/29 03:08:27;;;;;;;4.82;1.63;;;;;;;-1.71;83.44;99724.16;5025600;28;20064;-79
2021/01/29 03:11:34;;;;;;;7.80;2.10;;;;;;;-1.85;83.44;99718.44;4997032;28;20050;-79
2021/01/29 03:14:45;;;;;;;5.05;1.90;;;;;;;-2.02;83.88;99725.75;5003744;28;20112;-80
2021/01/29 03:17:28;;;;;;;5.50;2.15;;;;;;;-1.82;83.63;99720.97;4998540;28;20100;-79
2021/01/29 03:20:11;;;;;;;6.35;2.35;;;;;;;-1.95;84.20;99716.97;4982643;28;20069;-79
2021/01/29 03:22:44;;;;;;;5.20;1.92;;;;;;;-1.87;83.69;99705.59;5032117;28;20121;-80
2021/01/29 03:25:16;;;;;;;7.32;1.85;;;;;;;-1.99;84.32;99698.13;5001807;28;20057;-78
2021/01/29 03:28:37;;;;;;;7.10;1.85;;;;;;;-1.92;84.48;99704.84;5044708;28;20049;-79
2021/01/29 03:31:05;;;;;;;6.50;2.40;;;;;;;-1.91;84.83;99695.38;5017542;28;20116;-80
2021/01/29 03:33:35;;;;;;;6.55;2.10;;;;;;;-1.91;84.19;99691.06;5018166;28;20057;-78
2021/01/29 03:36:05;;;;;;;8.00;2.90;;;;;;;-1.99;84.58;99690.38;5022981;28;20101;-80
2021/01/29 03:38:37;;;;;;;3.30;1.40;;;;;;;-2.05;84.24;99687.97;5016942;28;20053;-80
2021/01/29 03:41:19;;;;;;;8.07;1.83;;;;;;;-2.00;84.25;99685.28;5020610;28;20032;-78
2021/01/29 03:44:02;;;;;;;5.00;1.30;;;;;;;-2.25;84.82;99675.53;5033815;28;20041;-80
2021/01/29 03:46:43;;;;;;;5.85;1.40;;;;;;;-2.22;85.88;99667.69;5001739;28;20392;-79
2021/01/29 03:49:22;;;;;;;6.97;1.83;;;;;;;-1.90;84.32;99666.97;4993621;28;20057;-81
2021/01/29 03:52:39;;;;;;;7.65;1.85;;;;;;;-2.22;84.96;99669.44;5013081;28;20089;-77
2021/01/29 03:55:17;;;;;;;7.10;2.70;;;;;;;-2.35;85.56;99663.69;4991235;28;20049;-79
2021/01/29 03:57:54;;;;;;;6.45;2.40;;;;;;;-2.43;85.83;99670.72;5004844;28;20022;-80
2021/01/29 04:00:39;;;;;;;4.78;1.70;;;;;;;-2.54;86.46;99670.97;5011071;28;20069;-79
2021/01/29 04:03:15;;;;;;;3.15;1.80;;;;;;;-2.50;86.44;99661.44;5019948;28;20066;-79
2021/01/29 04:05:51;;;;;;;4.78;1.70;;;;;;;-2.45;86.24;99659.63;4981557;28;20054;-79
2021/01/29 04:08:22;;;;;;;5.55;2.00;;;;;;;-2.45;86.02;99654.47;5021808;28;20042;-79
2021/01/29 04:10:54;;;;;;;4.15;1.67;;;;;;;-2.44;85.87;99653.56;5021067;28;20042;-79
2021/01/29 04:13:26;;;;;;;3.33;1.50;;;;;;;-2.40;85.51;99653.47;5000444;28;20334;-79
2021/01/29 04:15:54;;;;;;;4.75;1.92;;;;;;;-2.51;85.83;99646.88;5016661;28;20114;-80
2021/01/29 04:18:24;;;;;;;5.68;1.73;;;;;;;-2.54;86.50;99645.19;5032911;28;21399;-80
2021/01/29 04:21:06;;;;;;;6.25;2.22;;;;;;;-2.26;85.81;99645.44;5019288;28;20049;-78
2021/01/29 04:23:48;;;;;;;3.60;2.40;;;;;;;-2.43;86.01;99635.53;5026403;28;20117;-80
2021/01/29 04:26:20;;;;;;;6.25;1.80;;;;;;;-2.42;86.32;99620.91;5006234;28;20049;-80
2021/01/29 04:28:52;;;;;;;4.70;1.83;;;;;;;-2.37;85.65;99624.22;5017444;28;20088;-80
2021/01/29 04:31:19;;;;;;;7.15;2.28;;;;;;;-2.50;86.25;99615.06;4990634;28;20054;-80
2021/01/29 04:33:52;;;;;;;3.60;1.92;;;;;;;-2.37;85.80;99612.19;5005128;28;20072;-79
2021/01/29 04:36:20;;;;;;;4.88;2.00;;;;;;;-2.37;85.74;99614.75;5002702;28;20059;-79
2021/01/29 04:38:51;;;;;;;5.95;1.88;;;;;;;-2.27;84.21;99615.41;4990095;28;20579;-80
2021/01/29 04:41:30;;;;;;;5.95;1.60;;;;;;;-2.28;84.25;99605.13;5004745;28;20571;-79
2021/01/29 04:44:02;;;;;;;6.05;1.65;;;;;;;-2.44;85.05;99604.63;5021204;28;20045;-80
2021/01/29 04:46:56;;;;;;;7.22;2.08;;;;;;;-2.34;84.77;99593.25;5022829;28;20431;-79
2021/01/29 04:49:40;;;;;;;4.95;1.63;;;;;;;-2.26;84.99;99582.72;5029247;28;20233;-79
2021/01/29 04:52:40;;;;;;;4.13;1.88;;;;;;;-2.17;83.62;99578.19;5022521;28;20053;-78
2021/01/29 04:55:30;;;;;;;4.30;1.85;;;;;;;-2.31;84.36;99572.53;4995422;28;20083;-80
2021/01/29 04:58:13;;;;;;;6.70;2.08;;;;;;;-2.33;84.61;99564.84;5015751;28;20041;-79
2021/01/29 05:01:35;;;;;;;8.73;2.10;;;;;;;-2.34;84.85;99559.72;5001142;28;20057;-80
2021/01/29 05:04:36;;;;;;;10.02;2.28;;;;;;;-2.42;85.65;99541.03;4985138;28;20132;-78
2021/01/29 05:07:21;;;;;;;12.93;3.53;;;;;;;-2.38;85.47;99522.03;5007296;28;20064;-77
2021/01/29 05:09:57;;;;;;;8.07;2.75;;;;;;;-2.55;85.86;99518.09;5021546;28;20095;-77
2021/01/29 05:12:34;;;;;;;8.20;2.80;;;;;;;-2.58;86.57;99514.75;5025101;28;20120;-79
2021/01/29 05:15:24;;;;;;;6.90;2.00;;;;;;;-2.64;86.89;99513.16;4997236;28;20053;-78
2021/01/29 05:17:55;;;;;;;9.90;2.47;;;;;;;-2.64;87.24;99508.00;4983512;28;20100;-80
2021/01/29 05:20:47;;;;;;;6.43;2.03;;;;;;;-2.53;86.57;99501.75;5023563;28;20034;-79
2021/01/29 05:23:35;;;;;;;4.03;2.15;;;;;;;-2.52;86.26;99491.44;5035630;28;20030;-79
2021/01/29 05:26:44;;;;;;;4.15;1.90;;;;;;;-2.63;87.02;99489.09;5009764;28;20062;-79
2021/01/29 05:29:30;;;;;;;7.13;2.20;;;;;;;-2.50;86.22;99473.34;5028368;28;20157;-80
2021/01/29 05:32:11;;;;;;;6.82;2.30;;;;;;;-2.68;87.13;99472.91;5016160;28;20065;-78
2021/01/29 05:35:00;;;;;;;8.18;2.38;;;;;;;-2.78;87.79;99466.28;5012045;28;20102;-80
2021/01/29 05:37:29;;;;;;;6.68;2.10;;;;;;;-2.66;87.57;99470.28;5013699;28;20050;-80
2021/01/29 05:40:34;;;;;;;10.20;2.22;;;;;;;-2.75;87.12;99463.59;5011958;28;20053;-78
2021/01/29 05:43:13;;;;;;;5.03;1.73;;;;;;;-2.76;87.50;99463.66;4999449;28;20054;-77
2021/01/29 05:45:53;;;;;;;8.15;2.35;;;;;;;-2.84;87.67;99463.81;5028409;28;20187;-78
2021/01/29 05:48:47;;;;;;;11.18;3.15;;;;;;;-2.88;88.10;99459.63;5027280;28;20076;-78
2021/01/29 05:51:34;;;;;;;11.82;2.40;;;;;;;-3.02;87.98;99464.25;5031745;28;20095;-79
2021/01/29 05:54:26;;;;;;;5.80;2.40;;;;;;;-3.00;88.45;99460.75;5019768;28;20080;-78
2021/01/29 05:57:16;;;;;;;8.50;3.17;;;;;;;-2.62;87.57;99454.72;5018229;28;20049;-79
2021/01/29 06:00:07;;;;;;;8.68;2.50;;;;;;;-2.62;87.13;99448.72;4978136;28;20147;-79
2021/01/29 06:03:12;;;;;;;6.20;2.80;;;;;;;-2.70;87.41;99446.34;5009894;28;20045;-79
2021/01/29 06:09:27;;;;;;;7.57;2.67;;;;;;;-2.89;89.02;99448.47;4996386;28;20050;-80
2021/01/29 06:12:00;;;;;;;13.05;3.20;;;;;;;-2.81;88.29;99463.75;5010688;28;20073;-80
2021/01/29 06:14:52;;;;;;;7.72;2.22;;;;;;;-2.85;88.37;99455.25;4989060;28;21175;-80
2021/01/29 06:17:45;;;;;;;12.00;2.65;;;;;;;-2.36;87.37;99453.22;4988069;28;20081;-77
2021/01/29 06:20:19;;;;;;;6.28;2.30;;;;;;;-2.32;86.57;99454.84;4983292;28;20297;-80
2021/01/29 06:22:55;;;;;;;7.00;2.92;;;;;;;-2.32;86.69;99455.69;5005784;28;20053;-80
2021/01/29 06:25:34;;;;;;;10.55;2.20;;;;;;;-2.32;86.33;99457.44;5022324;28;20172;-79
2021/01/29 06:28:11;;;;;;;5.25;2.78;;;;;;;-2.32;86.26;99463.41;4998170;28;20618;-79
2021/01/29 06:31:16;;;;;;;14.15;2.60;;;;;;;-2.27;85.85;99453.00;4982798;28;20781;-79
2021/01/29 06:34:20;;;;;;;7.65;2.38;;;;;;;-2.30;86.43;99443.63;5017536;28;20049;-79
2021/01/29 06:36:56;;;;;;;3.67;2.30;;;;;;;-2.22;86.29;99447.72;5024327;28;20116;-79
2021/01/29 06:39:42;;;;;;;13.30;2.30;;;;;;;-2.26;86.13;99434.06;4984823;28;20045;-78
2021/01/29 06:42:24;;;;;;;7.55;2.65;;;;;;;-2.23;85.64;99425.41;5009853;28;20136;-78
2021/01/29 06:45:20;;;;;;;5.97;3.00;;;;;;;-2.35;85.62;99429.13;5007593;28;20061;-78
2021/01/29 06:48:06;;;;;;;7.88;2.70;;;;;;;-2.36;85.85;99436.03;5008716;28;20057;-78
2021/01/29 06:50:39;;;;;;;4.97;2.60;;;;;;;-2.26;86.19;99446.94;5025009;28;20109;-79
2021/01/29 06:53:25;;;;;;;21.30;5.20;;;;;;;-2.18;86.37;99460.50;5029123;28;20041;-81
2021/01/29 06:56:15;;;;;;;13.90;4.25;;;;;;;-2.06;86.08;99443.88;5023609;28;20028;-81
2021/01/29 06:59:08;;;;;;;9.02;3.72;;;;;;;-1.99;85.30;99421.31;5011193;28;20088;-83
2021/01/29 07:02:02;;;;;;;7.63;2.42;;;;;;;-2.00;85.70;99407.59;4978611;28;20547;-84
2021/01/29 07:04:55;;;;;;;7.82;3.20;;;;;;;-2.02;85.13;99403.38;5023968;28;20061;-82
2021/01/29 07:07:33;;;;;;;7.97;2.38;;;;;;;-1.94;84.64;99401.41;5009045;28;20105;-83
2021/01/29 07:10:04;;;;;;;9.35;2.45;;;;;;;-1.90;84.72;99403.03;5008097;28;20330;-82
2021/01/29 07:12:35;;;;;;;8.40;2.83;;;;;;;-1.90;84.89;99401.28;5042553;28;20030;-83
2021/01/29 07:15:54;;;;;;;5.00;2.30;;;;;;;-1.87;84.84;99397.78;5010347;28;20024;-81
2021/01/29 07:18:47;;;;;;;9.45;4.03;;;;;;;-1.84;84.12;99400.28;5024797;28;20120;-80
2021/01/29 07:21:28;;;;;;;8.70;2.90;;;;;;;-1.77;83.50;99414.69;4997876;28;20052;-81
2021/01/29 07:24:06;;;;;;;9.10;3.40;;;;;;;-2.01;83.91;99411.06;5013897;28;20033;-81
2021/01/29 07:26:48;;;;;;;10.63;2.45;;;;;;;-2.12;84.88;99401.03;4996811;28;20054;-80
2021/01/29 07:29:24;;;;;;;7.40;2.50;;;;;;;-1.90;83.75;99390.13;5010502;28;20054;-81
2021/01/29 07:31:57;;;;;;;11.88;4.13;;;;;;;-1.73;83.65;99390.50;5027718;28;20049;-82
2021/01/29 07:34:46;;;;;;;6.70;2.40;;;;;;;-1.71;83.26;99390.44;4985780;28;20036;-79
2021/01/29 07:37:32;;;;;;;6.68;2.50;;;;;;;-1.51;82.50;99384.72;5001575;28;20088;-78
2021/01/29 07:40:38;;;;;;;13.07;2.38;;;;;;;-1.75;82.11;99376.81;5004896;28;20107;-82
2021/01/29 07:43:21;;;;;;;8.75;2.38;;;;;;;-1.82;83.31;99360.66;4973064;28;20057;-82
2021/01/29 07:46:00;;;;;;;8.85;3.45;;;;;;;-1.90;83.20;99354.00;5000199;28;20049;-81
2021/01/29 07:48:45;;;;;;;13.95;2.97;;;;;;;-1.62;82.72;99360.09;5011577;28;20103;-78
2021/01/29 07:51:49;;;;;;;11.57;2.75;;;;;;;-1.66;82.80;99357.63;5015770;28;20046;-82
2021/01/29 07:54:42;;;;;;;5.85;2.95;;;;;;;-1.49;82.02;99349.38;5018747;28;20068;-80
2021/01/29 07:57:47;;;;;;;10.63;3.85;;;;;;;-1.33;81.04;99348.88;4987251;28;20033;-80
2021/01/29 08:00:35;;;;;;;10.90;2.60;;;;;;;-1.44;80.95;99350.06;5016280;28;20067;-81
2021/01/29 08:03:18;;;;;;;9.15;2.35;;;;;;;-1.66;81.38;99342.16;5006945;28;20037;-81
2021/01/29 08:06:04;;;;;;;7.47;2.05;;;;;;;-1.51;81.01;99344.28;5039679;28;20129;-81
2021/01/29 08:08:37;;;;;;;4.57;2.10;;;;;;;-1.37;81.22;99346.44;5032979;28;20045;-81
2021/01/29 08:11:08;;;;;;;8.38;2.78;;;;;;;-1.49;81.17;99341.63;5003807;28;20498;-81
2021/01/29 08:13:35;;;;;;;5.60;1.75;;;;;;;-1.27;80.90;99325.44;4976398;28;20041;-82
2021/01/29 08:16:02;;;;;;;5.68;2.47;;;;;;;-1.11;79.83;99322.38;5026788;28;21606;-83
2021/01/29 08:18:56;;;;;;;10.38;3.03;;;;;;;-1.22;79.94;99321.84;4999118;28;20049;-79
2021/01/29 08:21:52;;;;;;;6.45;2.38;;;;;;;-1.20;78.95;99323.50;5014027;28;20451;-80
2021/01/29 08:24:22;;;;;;;14.25;2.80;;;;;;;-1.08;79.13;99306.75;5001736;28;20153;-80
2021/01/29 08:27:01;;;;;;;12.57;3.40;;;;;;;-0.99;78.96;99303.03;5006438;28;20166;-79
2021/01/29 08:30:08;;;;;;;8.98;2.42;;;;;;;-0.81;78.18;99305.00;5021691;28;20048;-81
2021/01/29 08:32:53;;;;;;;4.75;2.47;;;;;;;-0.84;77.57;99313.72;5003985;28;20061;-79
2021/01/29 08:35:20;;;;;;;4.60;2.08;;;;;;;-0.74;78.07;99305.66;5025068;28;20057;-79
2021/01/29 08:37:58;;;;;;;3.92;2.28;;;;;;;-0.63;77.26;99300.94;5006889;28;20148;-81
2021/01/29 08:40:36;;;;;;;8.65;2.65;;;;;;;-0.68;77.11;99295.94;5021643;28;20095;-80
2021/01/29 08:43:28;;;;;;;6.78;2.65;;;;;;;-0.87;76.95;99287.13;5008393;28;20033;-78
2021/01/29 08:46:24;;;;;;;7.47;2.00;;;;;;;-0.75;76.42;99278.97;4996295;28;20535;-79
2021/01/29 08:49:14;;;;;;;6.97;2.63;;;;;;;-0.84;77.18;99274.13;5011721;28;20479;-77
2021/01/29 08:51:46;;;;;;;8.02;2.35;;;;;;;-0.59;76.51;99279.28;4986788;28;20037;-79
2021/01/29 08:54:41;;;;;;;10.48;2.90;;;;;;;-0.53;75.40;99271.31;5015626;28;20076;-78
2021/01/29 08:57:14;;;;;;;10.80;2.78;;;;;;;-0.70;75.57;99274.50;5027601;28;20060;-79
2021/01/29 08:59:41;;;;;;;9.38;3.05;;;;;;;-0.80;76.16;99261.03;4976303;28;20057;-78
2021/01/29 09:02:19;;;;;;;5.22;2.72;;;;;;;-0.74;75.78;99257.41;4994556;28;20061;-80
2021/01/29 09:04:47;;;;;;;7.18;2.25;;;;;;;-0.55;75.36;99261.03;5004829;28;20050;-79
2021/01/29 09:07:20;;;;;;;5.03;2.20;;;;;;;-0.29;74.68;99273.00;5020445;28;20050;-79
2021/01/29 09:09:49;;;;;;;6.18;2.35;;;;;;;-0.40;74.84;99275.16;5003078;28;20034;-80
2021/01/29 09:12:25;;;;;;;11.98;2.53;;;;;;;-0.21;74.28;99267.56;5026063;28;20046;-80
2021/01/29 09:15:11;;;;;;;7.43;2.55;;;;;;;-0.15;74.01;99261.31;5004154;28;20508;-80
2021/01/29 09:17:45;;;;;;;9.60;3.08;;;;;;;-0.31;74.38;99256.72;4991324;28;20133;-80
2021/01/29 09:20:13;;;;;;;5.32;2.33;;;;;;;-0.32;74.58;99257.59;5011096;28;20136;-81
2021/01/29 09:22:51;;;;;;;6.70;2.53;;;;;;;-0.66;75.58;99257.97;5018895;28;20065;-83
2021/01/29 09:25:28;;;;;;;6.38;3.33;;;;;;;-0.32;74.84;99251.59;4998883;28;20054;-79
2021/01/29 09:28:14;;;;;;;8.73;3.13;;;;;;;-0.30;75.24;99239.47;4997403;28;20069;-80
2021/01/29 09:30:44;;;;;;;6.38;2.72;;;;;;;-0.47;75.64;99242.66;5018234;28;20038;-80
2021/01/29 09:33:35;;;;;;;7.57;3.08;;;;;;;-0.22;74.00;99242.63;5018169;28;20072;-80
2021/01/29 09:36:05;;;;;;;10.88;2.78;;;;;;;-0.01;73.55;99228.00;5040916;28;20046;-79
2021/01/29 09:38:37;;;;;;;10.70;3.13;;;;;;;-0.11;74.99;99218.94;4997538;28;20056;-78
2021/01/29 09:41:13;;;;;;;14.77;3.08;;;;;;;0.06;73.65;99213.13;5036651;28;20058;-81
2021/01/29 09:43:49;;;;;;;6.32;2.47;;;;;;;0.20;72.40;99208.25;5009435;28;20053;-79
2021/01/29 09:46:21;;;;;;;11.60;2.70;;;;;;;-0.07;73.11;99215.31;5030718;28;20064;-78
2021/01/29 09:48:55;;;;;;;7.22;2.78;;;;;;;0.04;72.52;99205.41;5010475;28;20045;-79
2021/01/29 09:51:34;;;;;;;6.85;2.60;;;;;;;0.11;72.38;99198.25;5008538;28;20125;-78
2021/01/29 09:54:18;;;;;;;8.98;2.75;;;;;;;0.06;72.75;99195.00;5006494;28;20045;-79
2021/01/29 09:56:59;;;;;;;9.75;3.22;;;;;;;0.30;72.08;99195.78;4991513;28;20055;-80
2021/01/29 09:59:29;;;;;;;6.45;2.67;;;;;;;-0.26;73.97;99194.50;4993039;28;20147;-79
2021/01/29 10:02:03;;;;;;;8.88;2.85;;;;;;;0.08;72.71;99193.19;5029615;28;20050;-80
2021/01/29 10:04:59;;;;;;;6.10;3.00;;;;;;;0.02;73.35;99188.25;5000535;28;20042;-81
2021/01/29 10:07:27;;;;;;;5.25;3.00;;;;;;;0.20;72.31;99190.13;4987241;28;20057;-80
2021/01/29 10:10:00;;;;;;;6.28;2.55;;;;;;;0.25;71.59;99180.44;4997926;28;20590;-82
2021/01/29 10:12:29;;;;;;;6.90;2.42;;;;;;;0.40;71.16;99177.22;5004285;28;20136;-80
2021/01/29 10:15:03;;;;;;;7.43;3.33;;;;;;;0.64;70.10;99177.13;4993780;28;20044;-80
2021/01/29 10:17:35;;;;;;;4.97;2.45;;;;;;;0.62;69.81;99181.53;5001668;28;20084;-79
2021/01/29 10:20:07;;;;;;;5.90;2.38;;;;;;;0.56;71.24;99181.78;4987840;28;20594;-79
2021/01/29 10:23:04;;;;;;;10.98;3.28;;;;;;;0.47;70.74;99172.66;5009134;28;20515;-81
2021/01/29 10:26:25;;;;;;;5.85;2.38;;;;;;;0.31;71.02;99176.75;5016182;28;20720;-80
2021/01/29 10:29:16;;;;;;;13.30;2.78;;;;;;;0.38;71.19;99173.84;4934673;28;20604;-80
2021/01/29 10:32:02;;;;;;;4.28;2.63;;;;;;;0.41;70.16;99171.16;5028462;28;20125;-79
2021/01/29 10:34:37;;;;;;;10.68;2.55;;;;;;;0.31;70.36;99169.81;4991863;28;20125;-78
2021/01/29 10:37:27;;;;;;;6.07;2.40;;;;;;;0.43;69.22;99171.09;4986271;28;20092;-80
2021/01/29 10:40:07;;;;;;;7.50;2.63;;;;;;;0.11;70.29;99165.44;5020583;28;20464;-80
2021/01/29 10:42:41;;;;;;;3.88;2.20;;;;;;;0.23;70.64;99162.38;5014028;28;20049;-80
2021/01/29 10:45:15;;;;;;;225.45;45.00;;;;;;;0.64;69.68;99167.63;4998758;28;20084;-80
2021/01/29 10:47:49;;;;;;;10.27;2.97;;;;;;;0.94;67.17;99162.88;5002518;28;20045;-80
2021/01/29 10:50:22;;;;;;;8.60;3.13;;;;;;;1.20;66.21;99166.09;5020238;28;20060;-83
2021/01/29 10:53:11;;;;;;;8.30;3.03;;;;;;;1.36;65.65;99167.09;4986504;28;20072;-79
2021/01/29 10:55:52;;;;;;;11.15;2.85;;;;;;;1.11;65.66;99163.91;5002150;28;20049;-82
2021/01/29 10:58:22;;;;;;;8.38;3.35;;;;;;;1.01;66.39;99158.28;5024797;28;20065;-81
2021/01/29 11:00:52;;;;;;;3.65;2.03;;;;;;;1.12;66.75;99152.63;5012989;28;20118;-80
2021/01/29 11:03:42;;;;;;;6.32;2.90;;;;;;;1.49;65.55;99152.69;4996505;28;20057;-81
2021/01/29 11:06:11;;;;;;;6.70;2.88;;;;;;;1.65;64.86;99157.16;5018756;28;20311;-80
2021/01/29 11:08:41;;;;;;;10.13;3.15;;;;;;;1.65;64.49;99154.56;5032357;28;20046;-79
2021/01/29 11:11:16;;;;;;;8.20;2.90;;;;;;;1.20;65.25;99150.53;5038997;28;20547;-80
2021/01/29 11:14:02;;;;;;;7.63;3.10;;;;;;;1.15;65.91;99155.06;4999717;28;20056;-79
2021/01/29 11:16:54;;;;;;;7.55;4.07;;;;;;;0.83;67.58;99144.38;5011517;28;20065;-81
2021/01/29 11:19:30;;;;;;;12.73;4.13;;;;;;;0.75;67.44;99143.84;4991506;28;20065;-78
2021/01/29 11:22:05;;;;;;;6.35;2.67;;;;;;;0.80;66.64;99135.88;5006029;28;20730;-78
2021/01/29 11:24:51;;;;;;;6.45;3.22;;;;;;;0.94;66.35;99128.34;5021736;28;20061;-81
2021/01/29 11:27:28;;;;;;;12.98;4.25;;;;;;;0.83;67.41;99134.00;5023466;28;20477;-81
2021/01/29 11:30:16;;;;;;;8.32;3.30;;;;;;;0.97;67.08;99129.06;5003939;28;20033;-78
2021/01/29 11:32:58;;;;;;;11.18;4.13;;;;;;;1.05;66.96;99122.72;5006734;28;20033;-80
2021/01/29 11:35:53;;;;;;;11.27;2.60;;;;;;;1.05;65.73;99114.94;5004762;28;20038;-80
2021/01/29 11:38:27;;;;;;;9.68;3.20;;;;;;;0.89;67.33;99114.75;5041573;28;20098;-80
2021/01/29 11:41:15;;;;;;;7.47;3.22;;;;;;;1.04;66.50;99115.81;5017098;28;20045;-82
2021/01/29 11:43:50;;;;;;;13.88;3.97;;;;;;;1.40;65.02;99097.81;4993965;28;20053;-79
2021/01/29 11:46:28;;;;;;;10.18;2.80;;;;;;;1.24;65.05;99095.06;5008656;28;20140;-78
2021/01/29 11:49:02;;;;;;;5.03;2.20;;;;;;;1.30;64.21;99083.56;4991916;28;20068;-80
2021/01/29 11:51:37;;;;;;;8.50;2.70;;;;;;;1.23;64.19;99090.78;5028879;28;20148;-80
2021/01/29 11:54:15;;;;;;;9.65;3.10;;;;;;;1.06;63.67;99082.91;5000078;28;20061;-81
2021/01/29 11:56:54;;;;;;;7.45;2.88;;;;;;;1.06;64.31;99064.78;5014596;28;20050;-81
2021/01/29 11:59:22;;;;;;;9.50;3.28;;;;;;;1.16;64.08;99063.44;5024676;28;20131;-80
2021/01/29 12:01:57;;;;;;;8.15;2.95;;;;;;;1.17;64.40;99052.16;5036813;28;20045;-82
2021/01/29 12:04:38;;;;;;;11.45;3.47;;;;;;;1.37;64.35;99049.50;5001030;28;20042;-79
2021/01/29 12:07:15;;;;;;;5.82;2.65;;;;;;;1.33;64.17;99049.72;5013820;28;20064;-79
2021/01/29 12:10:06;;;;;;;6.07;3.03;;;;;;;1.33;64.01;99041.94;5032047;28;20058;-80
2021/01/29 12:13:02;;;;;;;7.55;2.80;;;;;;;1.08;64.11;99031.84;5016797;28;20049;-80
2021/01/29 12:15:46;;;;;;;5.78;2.28;;;;;;;1.22;63.31;99030.34;5020293;28;20100;-78
2021/01/29 12:18:15;;;;;;;8.63;2.72;;;;;;;1.08;63.59;99026.66;5013019;28;20131;-79
2021/01/29 12:20:43;;;;;;;7.53;3.00;;;;;;;0.76;64.10;99021.19;5014098;28;20213;-80
2021/01/29 12:23:35;;;;;;;9.18;3.25;;;;;;;0.67;63.88;99016.41;5021379;28;20046;-80
2021/01/29 12:26:08;;;;;;;8.52;3.10;;;;;;;0.62;64.73;99024.38;5036984;28;20050;-78
2021/01/29 12:28:50;;;;;;;9.10;2.55;;;;;;;0.62;64.90;99018.38;5004049;28;20053;-79
2021/01/29 12:31:44;;;;;;;6.82;2.40;;;;;;;0.66;64.18;99012.16;5000201;28;20153;-78
2021/01/29 12:34:33;;;;;;;6.38;2.60;;;;;;;0.71;63.46;99007.59;4997854;28;20555;-77
2021/01/29 12:37:08;;;;;;;7.88;2.53;;;;;;;0.77;63.45;98994.41;5007926;28;20064;-79